Time;durP1;ratioP1;P1;durP2;ratioP2;P2;SDS_P1;SDS_P2;PMS_P1;PMS_P2;Temp;Humidity;BMP_temperature;BMP_pressure;BME280_temperature;BME280_humidity;BME280_pressure;Samples;Min_cycle;Max_cycle;Signal;HPM_P1;HPM_P2
2021/09/30 00:05:11;;;;;;;7.87;6.13;;;;;;;12.09;100.00;101066.47;21080401;28;20225;-69
2021/09/30 00:15:20;;;;;;;9.47;6.80;;;;;;;11.94;100.00;101073.59;21079942;28;20232;-68
2021/09/30 00:35:57;;;;;;;8.20;6.63;;;;;;;12.12;100.00;101077.00;21078323;27;20358;-70
2021/09/30 00:46:03;;;;;;;9.53;7.03;;;;;;;12.06;100.00;101075.56;21077507;28;20246;-67
2021/09/30 02:19:36;;;;;;;7.93;6.77;;;;;;;12.14;100.00;101100.03;20986789;28;20718;-68
2021/09/30 02:58:01;;;;;;;11.30;8.00;;;;;;;11.63;100.00;101103.84;20980348;28;20230;-69
2021/09/30 03:01:23;;;;;;;10.53;8.43;;;;;;;11.11;100.00;101114.72;20999190;28;20695;-69
2021/09/30 03:11:34;;;;;;;11.93;8.43;;;;;;;11.08;100.00;101111.38;21016507;28;20226;-70
2021/09/30 03:32:00;;;;;;;13.17;8.17;;;;;;;10.94;100.00;101119.25;20999442;28;20703;-67
2021/09/30 03:42:38;;;;;;;13.70;8.47;;;;;;;10.88;100.00;101122.22;20986667;28;20750;-64
2021/09/30 03:52:59;;;;;;;11.47;8.43;;;;;;;10.87;100.00;101125.88;20996847;28;20219;-68
2021/09/30 04:03:03;;;;;;;9.53;8.23;;;;;;;10.81;100.00;101127.91;20997521;28;20325;-68
2021/09/30 04:23:20;;;;;;;11.53;7.97;;;;;;;10.77;100.00;101141.47;21164789;27;20298;-68
2021/09/30 04:33:24;;;;;;;10.43;7.67;;;;;;;10.84;100.00;101142.91;21142990;28;20221;-68
2021/09/30 04:43:30;;;;;;;9.80;7.57;;;;;;;10.88;100.00;101152.47;21130876;27;20292;-68
2021/09/30 04:53:32;;;;;;;10.53;7.10;;;;;;;10.94;100.00;101178.84;21162973;27;20340;-67
2021/09/30 05:03:36;;;;;;;7.70;6.63;;;;;;;11.07;100.00;101190.63;21216102;27;20221;-66
2021/09/30 05:13:39;;;;;;;6.83;6.13;;;;;;;11.16;100.00;101197.28;21217887;27;20320;-69
2021/09/30 05:23:44;;;;;;;9.23;6.50;;;;;;;11.26;100.00;101205.69;21222366;27;20255;-66
2021/09/30 05:33:47;;;;;;;6.90;6.20;;;;;;;11.38;100.00;101223.72;21170438;27;20253;-68
2021/09/30 05:43:53;;;;;;;9.20;6.80;;;;;;;11.50;100.00;101236.44;21163176;27;20218;-68
2021/09/30 05:53:55;;;;;;;8.63;6.97;;;;;;;11.62;100.00;101243.81;21165087;27;20221;-67
2021/09/30 06:14:33;;;;;;;12.63;7.20;;;;;;;11.73;100.00;101257.47;21163034;27;20247;-68
2021/09/30 06:24:37;;;;;;;14.57;10.10;;;;;;;11.85;100.00;101269.34;21161599;27;20700;-68
2021/09/30 06:34:41;;;;;;;13.27;11.13;;;;;;;12.01;100.00;101280.06;21161820;27;20236;-67
2021/09/30 06:54:49;;;;;;;17.63;13.03;;;;;;;12.50;100.00;101265.66;20978367;27;20626;-67
2021/09/30 07:05:21;;;;;;;13.87;10.30;;;;;;;12.96;100.00;101284.41;20937463;28;20225;-67
2021/09/30 07:15:38;;;;;;;7.83;6.97;;;;;;;13.38;100.00;101301.63;20956574;28;20298;-67
2021/09/30 07:25:40;;;;;;;17.00;11.50;;;;;;;13.81;100.00;101295.34;20973759;28;20705;-68
2021/09/30 07:35:44;;;;;;;9.03;7.23;;;;;;;14.19;100.00;101313.56;20973120;28;20546;-68
2021/09/30 07:45:48;;;;;;;7.47;6.40;;;;;;;14.08;100.00;101319.59;20971700;28;20237;-69
2021/09/30 07:55:52;;;;;;;7.30;6.63;;;;;;;13.98;100.00;101332.75;20971057;28;20228;-69
2021/09/30 08:05:55;;;;;;;7.87;6.40;;;;;;;13.97;100.00;101339.06;20916828;28;20682;-69
2021/09/30 08:15:59;;;;;;;9.40;7.83;;;;;;;13.92;100.00;101348.34;20914933;28;20218;-68
2021/09/30 08:26:01;;;;;;;9.37;8.13;;;;;;;13.83;100.00;101365.88;20912633;28;20265;-68
2021/09/30 08:36:07;;;;;;;9.77;8.77;;;;;;;13.89;100.00;101381.59;20913133;28;20234;-68
2021/09/30 08:46:09;;;;;;;13.40;12.13;;;;;;;13.97;100.00;101392.75;20912322;28;20261;-68
2021/09/30 08:56:14;;;;;;;15.50;13.70;;;;;;;13.65;100.00;101396.50;20911888;28;20235;-68
2021/09/30 09:06:30;;;;;;;14.23;12.87;;;;;;;14.74;100.00;101395.03;20910875;28;20234;-68
2021/09/30 09:16:34;;;;;;;12.17;10.97;;;;;;;15.96;100.00;101413.75;20909181;28;20265;-68
2021/09/30 09:26:39;;;;;;;11.57;10.57;;;;;;;16.51;100.00;101388.34;20909301;28;20258;-69
2021/09/30 09:36:43;;;;;;;11.33;10.33;;;;;;;17.47;100.00;101389.31;20908438;28;20314;-67
2021/09/30 09:46:46;;;;;;;12.20;11.20;;;;;;;17.44;100.00;101406.56;20907642;28;20220;-68
2021/09/30 09:56:50;;;;;;;9.20;8.30;;;;;;;16.87;100.00;101409.94;20907379;28;20747;-69
2021/09/30 10:06:53;;;;;;;7.83;7.23;;;;;;;16.37;100.00;101423.47;20906167;28;20222;-69
2021/09/30 10:16:57;;;;;;;7.10;6.50;;;;;;;16.03;100.00;101446.53;20906027;28;20226;-68
2021/09/30 10:27:02;;;;;;;6.53;6.03;;;;;;;15.61;100.00;101458.38;20904968;28;20728;-68
2021/09/30 10:37:20;;;;;;;8.53;6.23;;;;;;;15.37;100.00;101464.41;20904348;28;20234;-68
2021/09/30 10:47:22;;;;;;;6.77;6.27;;;;;;;15.12;100.00;101465.13;20903846;28;20246;-68
2021/09/30 10:57:40;;;;;;;11.17;9.33;;;;;;;15.19;100.00;101472.81;20903603;28;20307;-69
2021/09/30 11:07:42;;;;;;;8.50;7.70;;;;;;;14.95;100.00;101477.94;20903474;28;20239;-68
2021/09/30 11:17:46;;;;;;;12.03;7.63;;;;;;;14.70;100.00;101484.03;20903046;28;20227;-67
2021/09/30 11:28:13;;;;;;;5.50;5.07;;;;;;;14.66;100.00;101483.34;20902394;28;20231;-69
2021/09/30 11:38:22;;;;;;;6.63;6.13;;;;;;;14.27;100.00;101480.41;20912411;28;20230;-69
2021/09/30 11:48:29;;;;;;;10.87;8.73;;;;;;;14.09;100.00;101481.53;20916858;28;20238;-68
2021/09/30 11:58:36;;;;;;;7.77;7.17;;;;;;;14.62;100.00;101491.69;20916408;28;20250;-68
2021/09/30 12:08:44;;;;;;;48.90;13.30;;;;;;;15.05;100.00;101490.72;20915720;28;20700;-69
2021/09/30 12:19:01;;;;;;;6.10;5.60;;;;;;;15.32;100.00;101503.34;20913322;28;20314;-69
2021/09/30 12:29:04;;;;;;;5.33;4.83;;;;;;;16.03;100.00;101495.00;20912383;28;20594;-69
2021/09/30 12:39:07;;;;;;;5.50;5.10;;;;;;;16.77;100.00;101492.47;20913141;28;20619;-69
2021/09/30 12:49:10;;;;;;;5.90;5.50;;;;;;;17.02;100.00;101507.75;20911964;28;20313;-69
2021/09/30 12:59:15;;;;;;;6.07;5.67;;;;;;;16.88;100.00;101506.06;20911906;28;20230;-70
2021/09/30 13:09:22;;;;;;;5.00;4.60;;;;;;;16.46;100.00;101498.25;20911296;28;20601;-69
2021/09/30 13:19:49;;;;;;;4.87;4.47;;;;;;;16.76;100.00;101504.22;20908872;28;20226;-70
2021/09/30 13:29:52;;;;;;;3.03;2.83;;;;;;;17.24;100.00;101504.34;20909566;28;20284;-69
2021/09/30 13:39:58;;;;;;;2.13;2.00;;;;;;;16.58;100.00;101502.78;20908942;28;20570;-70
2021/09/30 13:50:01;;;;;;;2.23;2.03;;;;;;;16.06;100.00;101506.41;20894579;28;20749;-68
2021/09/30 14:00:12;;;;;;;2.77;1.80;;;;;;;15.57;100.00;101506.19;20879591;28;20238;-66
2021/09/30 14:10:17;;;;;;;2.80;2.40;;;;;;;15.50;100.00;101519.13;20894007;28;20231;-67
2021/09/30 14:20:21;;;;;;;2.77;2.40;;;;;;;15.42;100.00;101520.59;20871537;28;20281;-68
2021/09/30 14:30:24;;;;;;;2.87;2.20;;;;;;;15.24;100.00;101521.78;20891643;28;20231;-67
2021/09/30 14:40:30;;;;;;;2.83;2.20;;;;;;;15.16;100.00;101524.97;20867467;28;20222;-68
2021/09/30 14:50:34;;;;;;;4.40;2.93;;;;;;;14.85;100.00;101527.88;20923077;28;20241;-69
2021/09/30 15:00:40;;;;;;;2.10;1.90;;;;;;;14.41;100.00;101526.97;20873789;28;20231;-67
2021/09/30 15:10:43;;;;;;;3.23;2.03;;;;;;;14.35;100.00;101521.09;20840061;28;20321;-67
2021/09/30 15:31:07;;;;;;;2.57;2.20;;;;;;;14.13;100.00;101520.66;20729754;28;20616;-67
2021/09/30 15:41:12;;;;;;;2.50;2.30;;;;;;;13.97;100.00;101536.81;20738698;28;20235;-68
2021/09/30 15:51:15;;;;;;;3.10;2.80;;;;;;;13.75;100.00;101547.94;20717998;28;20291;-67
2021/09/30 16:01:20;;;;;;;3.30;2.23;;;;;;;13.52;100.00;101540.34;20738125;28;20258;-67
2021/09/30 16:11:23;;;;;;;2.07;1.90;;;;;;;13.17;100.00;101551.22;20715898;28;20247;-68
2021/09/30 16:21:27;;;;;;;5.23;3.43;;;;;;;12.61;100.00;101562.31;20737370;28;20261;-66
2021/09/30 16:31:35;;;;;;;3.50;3.17;;;;;;;11.92;100.00;101577.50;20717039;28;20225;-67
2021/09/30 16:41:39;;;;;;;2.43;2.23;;;;;;;11.24;100.00;101578.97;20733518;28;20216;-67
2021/09/30 16:51:41;;;;;;;3.37;3.07;;;;;;;10.70;100.00;101583.25;20721087;28;20236;-66
2021/09/30 17:01:49;;;;;;;3.77;2.87;;;;;;;10.33;100.00;101594.66;20790872;28;20228;-69
2021/09/30 17:11:55;;;;;;;5.37;4.10;;;;;;;9.86;100.00;101572.63;20841400;28;20623;-71
2021/09/30 17:22:02;;;;;;;5.73;3.50;;;;;;;9.71;100.00;101592.78;20828019;28;20226;-70
2021/09/30 17:32:06;;;;;;;6.50;3.70;;;;;;;9.55;100.00;101595.19;20841533;28;20245;-64
2021/09/30 17:42:10;;;;;;;7.87;5.50;;;;;;;9.42;100.00;101599.25;20822995;28;20696;-72
2021/09/30 17:52:13;;;;;;;5.20;4.70;;;;;;;9.34;100.00;101604.00;20841732;28;20242;-66
2021/09/30 18:02:19;;;;;;;4.50;4.10;;;;;;;9.25;100.00;101604.38;20844389;28;20237;-67
2021/09/30 18:12:23;;;;;;;19.13;9.73;;;;;;;9.13;100.00;101615.50;20838203;28;20349;-68
2021/09/30 18:22:28;;;;;;;14.23;9.13;;;;;;;9.05;100.00;101617.59;20824665;28;20599;-66
2021/09/30 18:32:31;;;;;;;16.53;12.27;;;;;;;9.07;100.00;101624.56;20833607;28;20593;-68
2021/09/30 18:42:36;;;;;;;19.27;14.00;;;;;;;9.00;100.00;101634.59;20836017;28;20226;-69
2021/09/30 18:52:39;;;;;;;26.23;16.20;;;;;;;8.89;100.00;101636.78;20816019;28;20222;-70
2021/09/30 19:12:43;;;;;;;21.80;16.77;;;;;;;8.58;100.00;101638.78;21014137;27;20760;-72
2021/09/30 19:32:56;;;;;;;14.30;12.47;;;;;;;7.97;100.00;101642.63;20969167;27;22506;-70
2021/09/30 19:53:02;;;;;;;11.63;10.43;;;;;;;7.47;100.00;101651.25;21033086;27;21026;-69
2021/09/30 20:03:05;;;;;;;13.90;11.67;;;;;;;7.26;100.00;101659.84;21050660;28;20907;-69
2021/09/30 20:13:10;;;;;;;13.33;11.13;;;;;;;7.15;100.00;101665.47;21042263;28;20227;-71
2021/09/30 20:23:14;;;;;;;13.33;10.43;;;;;;;6.99;100.00;101665.94;21031061;28;20238;-69
2021/09/30 20:33:19;;;;;;;13.00;11.30;;;;;;;6.72;100.00;101679.06;21034047;28;20229;-69
2021/09/30 20:53:22;;;;;;;12.20;10.53;;;;;;;6.47;100.00;101685.91;20932885;27;20570;-70
2021/09/30 21:03:25;;;;;;;12.43;11.10;;;;;;;6.36;100.00;101703.88;20920001;28;20246;-70
2021/09/30 21:13:29;;;;;;;12.57;10.77;;;;;;;6.24;100.00;101698.88;20918996;28;20261;-70
2021/09/30 21:23:31;;;;;;;11.87;10.60;;;;;;;6.21;100.00;101697.16;20917894;28;20592;-70
2021/09/30 21:33:35;;;;;;;10.80;9.70;;;;;;;6.16;100.00;101706.97;20957304;28;20306;-68
2021/09/30 21:43:39;;;;;;;13.90;11.70;;;;;;;6.01;100.00;101708.25;20952784;28;20242;-68
2021/09/30 21:53:43;;;;;;;12.53;10.87;;;;;;;5.90;100.00;101712.06;20951540;28;20223;-68
2021/09/30 22:03:45;;;;;;;9.80;8.77;;;;;;;5.79;100.00;101715.78;20919176;28;20223;-68
2021/09/30 22:54:02;;;;;;;14.90;11.63;;;;;;;5.30;100.00;101737.13;21059159;27;20654;-68
2021/09/30 23:34:02;;;;;;;10.00;8.97;;;;;;;5.03;100.00;101727.06;21060220;27;20549;-69
2021/09/30 23:44:04;;;;;;;13.60;9.93;;;;;;;4.85;100.00;101730.91;21057204;28;20247;-69
